Hayden, Arizona
Current Conditions -  °F | °C
As of 5:15 PM on Friday 28 Nov 2014 (Local Time) from KAVQ Reporting Station
Clear Clear  
Wind Chill: 76°   Ceiling: Unl
Heat Index: 76°   Visibility: 7mi
Dew Point: 24°   Wind: 8mph
Humidity: 14%   Direction: 310°NW
Pressure: 29.94"   Gusts: NA
Location:  33°N, 110.79°W
Report Text: KAVQ 290015Z AUTO 31007KT 7SM CLR 24/M05 A2994 RMK AO2 T02431046
Loading
Personal Weather Stations






























Interactive Weather Map New forecast layout! Learn more

10-Day Weather Forecast

Advertisements
Track Severe Weather on mobile